Latest Weather Observations for Holmes Reef

IDQ60801

Issued at 10:02 pm EST Friday 28 April 2017 (issued every 30 minutes, with the page automatically refreshed every 10 minutes)

About weather observations | Map of weather stations | Latest weather observations for QLD | Other Formats
Station Details ID: 200732 Name: HOLMES REEF Lat: -16.47 Lon: 147.87 Height: 1.9 m
Data from the previous 72 hours. | See also: Recent months at Holmes Reef
Date/Time
EST
Temp
°C
App
Temp
°C
Dew
Point
°C
Rel
Hum
%
Delta-T
°C
Wind Press
QNH
hPa
Press
MSL
hPa
Rain since
9am
mm
Dir  Spd
km/h
Gust
km/h
Spd
kts
Gust
kts
28/10:00pm 24.7 - - - - SE 33 39 18 21 1015.8 - -
28/09:30pm 24.4 - - - - SE 37 43 20 23 1015.7 - -
28/09:15pm 24.4 - - - - SE 37 - 20 - - 1015.3 -
28/09:00pm 24.8 - - - - SE 35 41 19 22 1015.6 - -
28/08:30pm 24.5 - - - - SE 39 43 21 23 1015.2 - -
28/08:15pm 24.5 - - - - SE 39 - 21 - - 1014.7 -
28/08:00pm 24.8 - - - - SE 39 44 21 24 1014.8 - -
28/07:30pm 24.8 - - - - SE 37 44 20 24 1014.5 - -
28/07:15pm 24.7 - - - - SE 35 - 19 - - 1014.1 -
28/07:00pm 24.9 - - - - SE 39 43 21 23 1014.0 - -
28/06:30pm 25.0 - - - - SE 37 43 20 23 1013.5 - -
28/06:15pm 24.7 - - - - SE 37 - 20 - - 1013.1 -
28/06:00pm 24.8 - - - - SE 37 41 20 22 1013.4 - -
28/05:30pm 24.9 - - - - SSE 37 43 20 23 1013.1 - -
28/05:15pm 24.8 - - - - SSE 37 - 20 - - 1012.7 -
28/05:00pm 24.9 - - - - SSE 39 46 21 25 1012.8 - -
28/04:30pm 25.2 - - - - SSE 39 44 21 24 1012.4 - -
28/04:15pm 25.4 - - - - SSE 39 - 21 - - 1012.0 -
28/04:00pm 25.1 - - - - SSE 37 44 20 24 1012.1 - -
28/03:30pm 25.3 - - - - SSE 37 43 20 23 1012.0 - -
28/03:15pm 25.3 - - - - SSE 39 - 21 - - 1011.5 -
28/03:00pm 25.4 - - - - SSE 39 44 21 24 1011.9 - -
28/02:30pm 25.4 - - - - SSE 39 43 21 23 1012.0 - -
28/02:15pm 25.6 - - - - SSE 39 - 21 - - 1011.8 -
28/02:00pm 25.5 - - - - SSE 37 43 20 23 1012.2 - -
28/01:30pm 25.8 - - - - SSE 37 44 20 24 1012.4 - -
28/01:15pm 25.8 - - - - SSE 37 - 20 - - 1012.4 -
28/01:00pm 25.9 - - - - SSE 35 39 19 21 1012.9 - -
28/12:30pm 26.1 - - - - SSE 37 46 20 25 1013.2 - -
28/12:15pm 26.0 - - - - SSE 37 - 20 - - 1013.0 -
28/12:00pm 26.2 - - - - SSE 37 44 20 24 1013.4 - -
28/11:30am 26.2 - - - - SSE 39 44 21 24 1013.8 - -
28/11:15am 26.0 - - - - SSE 41 - 22 - - 1013.7 -
28/11:00am 26.2 - - - - SSE 41 44 22 24 1014.3 - -
28/10:30am 26.5 - - - - SSE 41 46 22 25 1014.7 - -
28/10:15am 26.4 - - - - SSE 41 - 22 - - 1014.4 -
28/10:00am 26.2 - - - - SSE 39 46 21 25 1014.7 - -
28/09:30am 26.4 - - - - SSE 41 46 22 25 1014.7 - -
28/09:15am 26.3 - - - - SSE 39 - 21 - - 1014.4 -
28/09:00am 25.8 - - - - SSE 33 37 18 20 1014.6 - -
28/08:30am 26.0 - - - - SSE 35 39 19 21 1014.5 - -
28/08:15am 26.5 - - - - SSE 24 - 13 - - 1014.2 -
28/08:00am 26.7 - - - - SSE 20 24 11 13 1014.5 - -
28/07:30am 26.3 - - - - SSE 19 20 10 11 1014.0 - -
28/07:15am 26.2 - - - - SSE 17 - 9 - - 1013.7 -
28/07:00am 26.1 - - - - SSE 17 20 9 11 1013.7 - -
28/06:30am 25.8 - - - - SE 15 19 8 10 1013.4 - -
28/06:15am 25.7 - - - - SE 17 - 9 - - 1013.0 -
28/06:00am 25.9 - - - - SSE 17 20 9 11 1013.3 - -
28/05:30am 25.8 - - - - SE 19 22 10 12 1013.0 - -
28/05:15am 25.7 - - - - SE 19 - 10 - - 1012.7 -
28/05:00am 25.8 - - - - SE 20 24 11 13 1012.9 - -
28/04:30am 25.8 - - - - SE 19 20 10 11 1012.7 - -
28/04:15am 25.8 - - - - SE 22 - 12 - - 1012.3 -
28/04:00am 25.9 - - - - SE 20 24 11 13 1012.5 - -
28/03:30am 25.6 - - - - SE 19 24 10 13 1012.3 - -
28/03:15am 25.9 - - - - SE 19 - 10 - - 1012.0 -
28/03:00am 25.8 - - - - SE 15 17 8 9 1012.2 - -
28/02:30am 25.7 - - - - E 13 15 7 8 1012.0 - -
28/02:15am 25.8 - - - - E 13 - 7 - - 1011.7 -
28/02:00am 25.8 - - - - E 15 17 8 9 1012.1 - -
28/01:30am 25.8 - - - - E 15 17 8 9 1012.1 - -
28/01:15am 25.9 - - - - E 15 - 8 - - 1011.8 -
28/01:00am 25.7 - - - - E 15 17 8 9 1012.3 - -
28/12:30am 25.8 - - - - E 13 17 7 9 1012.3 - -
28/12:15am 25.7 - - - - ESE 15 - 8 - - 1012.1 -
28/12:00am 25.7 - - - - E 13 17 7 9 1012.5 - -
 
Date/Time
EST
Temp
°C
App
Temp
°C
Dew
Point
°C
Rel
Hum
%
Delta-T
°C
Wind Press
QNH
hPa
Press
MSL
hPa
Rain since
9am
mm
Dir  Spd
km/h
Gust
km/h
Spd
kts
Gust
kts
27/11:30pm 25.8 - - - - ESE 13 15 7 8 1013.0 - -
27/11:15pm 25.8 - - - - ESE 15 - 8 - - 1012.8 -
27/11:00pm 25.8 - - - - ESE 15 19 8 10 1013.2 - -
27/10:30pm 25.9 - - - - ESE 15 19 8 10 1013.2 - -
27/10:15pm 25.9 - - - - ESE 13 - 7 - - 1012.9 -
27/10:00pm 26.0 - - - - SE 15 19 8 10 1013.4 - -
27/09:30pm 26.0 - - - - SE 17 20 9 11 1013.3 - -
27/09:15pm 25.9 - - - - SSE 19 - 10 - - 1013.0 -
27/09:00pm 26.0 - - - - SSE 17 20 9 11 1013.2 - -
27/08:30pm 26.0 - - - - SSE 17 22 9 12 1012.9 - -
27/08:15pm 26.0 - - - - SE 17 - 9 - - 1012.4 -
27/08:00pm 25.9 - - - - SE 15 17 8 9 1012.5 - -
27/07:30pm 26.1 - - - - SSE 15 17 8 9 1012.3 - -
27/07:15pm 25.9 - - - - SSE 15 - 8 - - 1011.8 -
27/07:00pm 26.1 - - - - SSE 15 17 8 9 1012.0 - -
27/06:30pm 26.2 - - - - SSE 15 19 8 10 1011.8 - -
27/06:15pm 26.0 - - - - SSE 15 - 8 - - 1011.4 -
27/06:00pm 26.2 - - - - SSE 13 17 7 9 1011.5 - -
27/05:30pm 26.8 - - - - SSE 9 13 5 7 1011.4 - -
27/05:15pm 27.1 - - - - SSE 11 - 6 - - 1010.9 -
27/05:00pm 27.1 - - - - SSE 11 13 6 7 1011.1 - -
27/04:30pm 27.1 - - - - S 17 20 9 11 1010.8 - -
27/04:15pm 27.1 - - - - S 17 - 9 - - 1010.6 -
27/04:00pm 27.2 - - - - S 17 20 9 11 1010.8 - -
27/03:30pm 27.0 - - - - S 17 20 9 11 1010.8 - -
27/03:15pm 27.1 - - - - S 17 - 9 - - 1010.6 -
27/03:00pm 26.7 - - - - S 17 20 9 11 1010.9 - -
27/02:30pm 26.8 - - - - S 17 20 9 11 1011.0 - -
27/02:15pm 27.0 - - - - S 17 - 9 - - 1010.8 -
27/02:00pm 27.0 - - - - S 15 19 8 10 1011.3 - -
27/01:30pm 26.9 - - - - S 17 20 9 11 1011.6 - -
27/01:15pm 26.9 - - - - S 17 - 9 - - 1011.6 -
27/01:00pm 26.8 - - - - S 19 22 10 12 1012.0 - -
27/12:30pm 26.8 - - - - S 17 20 9 11 1012.4 - -
27/12:15pm 26.8 - - - - S 17 - 9 - - 1012.3 -
27/12:00pm 27.0 - - - - S 17 20 9 11 1012.8 - -
27/11:30am 27.1 - - - - SSE 15 19 8 10 1013.2 - -
27/11:15am 27.2 - - - - S 17 - 9 - - 1013.1 -
27/11:00am 27.2 - - - - S 15 17 8 9 1013.6 - -
27/10:30am 27.1 - - - - SSE 15 19 8 10 1013.8 - -
27/10:15am 27.1 - - - - SSE 13 - 7 - - 1013.7 -
27/10:00am 27.0 - - - - SE 13 15 7 8 1013.9 - -
27/09:30am 27.3 - - - - SSE 9 13 5 7 1013.8 - -
27/09:15am 27.1 - - - - SSE 11 - 6 - - 1013.5 -
27/09:00am 26.9 - - - - SSE 11 13 6 7 1013.6 - -
27/08:30am 26.7 - - - - SE 11 15 6 8 1013.3 - -
27/08:15am 26.6 - - - - SE 11 - 6 - - 1012.9 -
27/08:00am 26.8 - - - - SSE 9 13 5 7 1013.2 - -
27/07:30am 26.3 - - - - SE 9 11 5 6 1013.0 - -
27/07:15am 26.5 - - - - ESE 9 - 5 - - 1012.4 -
27/07:00am 25.9 - - - - ESE 9 11 5 6 1012.6 - -
27/06:30am 25.8 - - - - ESE 9 13 5 7 1012.1 - -
27/06:15am 25.7 - - - - ESE 11 - 6 - - 1011.6 -
27/06:00am 25.7 - - - - E 11 13 6 7 1011.7 - -
27/05:30am 25.7 - - - - E 13 15 7 8 1011.4 - -
27/05:15am 25.7 - - - - E 13 - 7 - - 1011.0 -
27/05:00am 25.8 - - - - E 13 19 7 10 1011.2 - -
27/04:30am 25.7 - - - - E 15 19 8 10 1010.9 - -
27/04:15am 25.8 - - - - E 15 - 8 - - 1010.8 -
27/04:00am 25.7 - - - - E 15 19 8 10 1011.1 - -
27/03:30am 25.6 - - - - E 17 20 9 11 1011.1 - -
27/03:15am 25.7 - - - - ESE 15 - 8 - - 1010.8 -
27/03:00am 25.7 - - - - ESE 15 17 8 9 1011.1 - -
27/02:30am 25.7 - - - - ESE 15 17 8 9 1011.4 - -
27/02:15am 25.8 - - - - ESE 15 - 8 - - 1011.2 -
27/02:00am 25.8 - - - - ESE 13 17 7 9 1011.6 - -
27/01:30am 25.9 - - - - ESE 13 17 7 9 1011.9 - -
27/01:15am 25.6 - - - - ESE 13 - 7 - - 1011.8 -
27/01:00am 25.9 - - - - ESE 13 15 7 8 1012.3 - -
27/12:30am 25.9 - - - - ESE 13 15 7 8 1012.5 - -
27/12:15am 25.9 - - - - E 13 - 7 - - 1012.3 -
27/12:00am 26.0 - - - - E 15 20 8 11 1012.7 - -
 
Date/Time
EST
Temp
°C
App
Temp
°C
Dew
Point
°C
Rel
Hum
%
Delta-T
°C
Wind Press
QNH
hPa
Press
MSL
hPa
Rain since
9am
mm
Dir  Spd
km/h
Gust
km/h
Spd
kts
Gust
kts
26/11:30pm 25.9 - - - - ESE 15 19 8 10 1013.0 - -
26/11:15pm 26.0 - - - - ESE 15 - 8 - - 1012.7 -
26/11:00pm 26.1 - - - - ESE 15 19 8 10 1013.2 - -
26/10:30pm 26.1 - - - - SE 17 19 9 10 1013.3 - -
26/10:15pm 26.1 - - - - SE 17 - 9 - - 1013.1 -
26/10:00pm 26.1 - - - - SE 17 20 9 11 1013.5 - -
26/09:30pm 26.3 - - - - SE 19 20 10 11 1013.6 - -
26/09:15pm 26.1 - - - - SSE 19 - 10 - - 1013.3 -
26/09:00pm 26.2 - - - - SE 20 24 11 13 1013.6 - -
26/08:30pm 26.3 - - - - SSE 20 24 11 13 1013.4 - -
26/08:15pm 26.2 - - - - SSE 20 - 11 - - 1013.0 -
26/08:00pm 26.3 - - - - SSE 20 24 11 13 1013.0 - -
26/07:30pm 26.3 - - - - SE 19 20 10 11 1012.7 - -
26/07:15pm 26.3 - - - - SE 19 - 10 - - 1012.2 -
26/07:00pm 26.2 - - - - SE 20 24 11 13 1012.2 - -
26/06:30pm 26.1 - - - - SSE 19 22 10 12 1012.1 - -
26/06:15pm 26.1 - - - - SSE 20 - 11 - - 1011.7 -
26/06:00pm 26.4 - - - - SSE 20 22 11 12 1012.0 - -
26/05:30pm 26.4 - - - - SSE 19 20 10 11 1011.6 - -
26/05:15pm 26.8 - - - - SSE 17 - 9 - - 1011.3 -
26/05:00pm 26.8 - - - - SSE 17 20 9 11 1011.5 - -
26/04:30pm 26.9 - - - - SSE 15 20 8 11 1011.3 - -
26/04:15pm 27.0 - - - - SSE 17 - 9 - - 1010.9 -
26/04:00pm 26.9 - - - - SSE 19 20 10 11 1011.2 - -
26/03:30pm 27.2 - - - - SSE 19 22 10 12 1011.2 - -
26/03:15pm 27.3 - - - - SSE 19 - 10 - - 1010.8 -
26/03:00pm 27.0 - - - - SSE 19 20 10 11 1011.2 - -
26/02:30pm 27.0 - - - - SSE 17 20 9 11 1011.2 - -
26/02:15pm 27.1 - - - - SSE 17 - 9 - - 1011.1 -
26/02:00pm 27.0 - - - - SE 17 19 9 10 1011.6 - -
26/01:30pm 26.6 - - - - SE 17 19 9 10 1011.9 - -
26/01:15pm 26.4 - - - - SE 17 - 9 - - 1011.5 -
26/01:00pm 26.7 - - - - SSE 17 20 9 11 1012.2 - -
26/12:30pm 26.5 - - - - SE 17 20 9 11 1012.5 - -
26/12:15pm 26.6 - - - - SE 17 - 9 - - 1012.5 -
26/12:00pm 26.5 - - - - SE 15 20 8 11 1013.0 - -
26/11:30am 26.5 - - - - SE 17 22 9 12 1013.5 - -
26/11:15am 26.4 - - - - SE 19 - 10 - - 1013.6 -
26/11:00am 26.5 - - - - SE 19 22 10 12 1014.2 - -
26/10:30am 26.4 - - - - SE 17 20 9 11 1014.6 - -
26/10:15am 26.4 - - - - ESE 19 - 10 - - 1014.4 -
26/10:00am 26.5 - - - - SE 19 22 10 12 1014.8 - -
26/09:30am 26.6 - - - - SE 22 24 12 13 1014.8 - -
26/09:15am 26.5 - - - - SE 20 - 11 - - 1014.4 -
26/09:00am 26.6 - - - - SSE 20 26 11 14 1014.6 - -
26/08:30am 26.3 - - - - SE 20 24 11 13 1014.3 - -
26/08:15am 26.3 - - - - SE 22 - 12 - - 1013.9 -
26/08:00am 26.4 - - - - SE 20 24 11 13 1014.2 - -
26/07:30am 26.4 - - - - SE 22 24 12 13 1013.9 - -
26/07:15am 26.4 - - - - SE 22 - 12 - - 1013.6 -
26/07:00am 26.0 - - - - SE 24 26 13 14 1013.7 - -
26/06:30am 25.9 - - - - SE 22 26 12 14 1013.4 - -
26/06:15am 26.1 - - - - SE 19 - 10 - - 1013.0 -
26/06:00am 26.0 - - - - SE 20 24 11 13 1013.0 - -
26/05:30am 26.0 - - - - SE 20 24 11 13 1012.9 - -
26/05:15am 26.0 - - - - SE 20 - 11 - - 1012.5 -
26/05:00am 25.9 - - - - SE 20 24 11 13 1012.7 - -
26/04:30am 25.9 - - - - SE 20 24 11 13 1012.5 - -
26/04:15am 26.0 - - - - SE 20 - 11 - - 1012.1 -
26/04:00am 25.8 - - - - ESE 22 24 12 13 1012.3 - -
26/03:30am 25.9 - - - - ESE 22 26 12 14 1012.3 - -
26/03:15am 25.9 - - - - SE 22 - 12 - - 1012.1 -
26/03:00am 26.1 - - - - ESE 20 26 11 14 1012.4 - -
26/02:30am 26.0 - - - - SE 22 26 12 14 1012.7 - -
26/02:15am 26.1 - - - - SE 22 - 12 - - 1012.6 -
26/02:00am 26.2 - - - - SE 22 26 12 14 1013.0 - -
26/01:30am 26.3 - - - - SE 20 22 11 12 1013.5 - -
26/01:15am 26.2 - - - - ESE 20 - 11 - - 1013.3 -
26/01:00am 26.2 - - - - ESE 19 24 10 13 1013.9 - -
26/12:30am 26.2 - - - - ESE 22 24 12 13 1014.1 - -
26/12:15am 26.2 - - - - ESE 22 - 12 - - 1013.9 -
26/12:00am 26.2 - - - - SE 22 28 12 15 1014.4 - -
 
Date/Time
EST
Temp
°C
App
Temp
°C
Dew
Point
°C
Rel
Hum
%
Delta-T
°C
Wind Press
QNH
hPa
Press
MSL
hPa
Rain since
9am
mm
Dir  Spd
km/h
Gust
km/h
Spd
kts
Gust
kts
25/11:30pm 26.5 - - - - SE 22 26 12 14 1014.4 - -
25/11:15pm 26.5 - - - - SE 22 - 12 - - 1014.2 -
25/11:00pm 26.4 - - - - ESE 24 28 13 15 1014.6 - -
25/10:30pm 26.4 - - - - SE 26 30 14 16 1014.7 - -
25/10:15pm 26.3 - - - - SE 24 - 13 - - 1014.4 -

Other Formats:

Comma delimited format used in spreadsheet applications
http://www.bom.gov.au/fwo/IDQ60801/IDQ60801.94289.axf

JavaScript Object Notation format (JSON) in row-major order
http://www.bom.gov.au/fwo/IDQ60801/IDQ60801.94289.json